createdAt,value
2022-11-10T00:18:29.992Z,20.0
2022-11-10T00:48:29.949Z,20.0
2022-11-10T01:18:29.967Z,20.0
2022-11-10T01:48:29.961Z,19.9
2022-11-10T02:18:29.970Z,19.9
2022-11-10T02:48:30.052Z,19.8
2022-11-10T03:18:30.001Z,19.8
2022-11-10T03:48:30.050Z,19.8
2022-11-10T04:18:29.969Z,19.7
2022-11-10T04:48:29.978Z,19.8
2022-11-10T05:18:30.006Z,19.8
2022-11-10T05:48:29.953Z,20.0
2022-11-10T06:18:29.970Z,20.1
2022-11-10T06:48:29.998Z,20.3
2022-11-10T07:18:29.965Z,20.3
2022-11-10T07:48:29.949Z,20.5
2022-11-10T08:18:30.081Z,20.5
2022-11-10T08:48:30.046Z,20.6
2022-11-10T09:18:29.978Z,20.6
2022-11-10T09:48:29.977Z,20.6
2022-11-10T10:18:29.988Z,20.5
2022-11-10T10:48:30.020Z,20.5
2022-11-10T11:18:29.983Z,20.4
2022-11-10T11:48:30.013Z,20.4
2022-11-10T12:18:29.960Z,20.3
2022-11-10T12:48:29.966Z,20.4
2022-11-10T13:18:29.943Z,20.3
2022-11-10T13:48:29.926Z,20.3
2022-11-10T14:18:29.947Z,20.3
2022-11-10T14:48:29.994Z,20.3
2022-11-10T15:18:29.932Z,20.3
2022-11-10T15:48:29.950Z,20.3
2022-11-10T16:18:29.943Z,20.3
2022-11-10T16:48:29.925Z,20.3
2022-11-10T17:18:29.947Z,20.3
2022-11-10T17:48:29.940Z,20.2
2022-11-10T18:18:30.044Z,20.2
2022-11-10T18:48:29.942Z,20.3
2022-11-10T19:18:29.961Z,20.3
2022-11-10T19:48:29.940Z,20.3
2022-11-10T20:18:30.026Z,20.1
2022-11-10T20:48:29.942Z,20.1
2022-11-10T21:18:29.683Z,20.1
2022-11-10T21:48:29.951Z,20.0
2022-11-10T22:18:29.937Z,19.9
2022-11-10T22:48:29.921Z,19.8
2022-11-10T23:18:29.949Z,19.8
2022-11-10T23:48:29.942Z,19.7
